Time;durP1;ratioP1;P1;durP2;ratioP2;P2;SDS_P1;SDS_P2;PMS_P1;PMS_P2;Temp;Humidity;BMP_temperature;BMP_pressure;BME280_temperature;BME280_humidity;BME280_pressure;Samples;Min_cycle;Max_cycle;Signal;HPM_P1;HPM_P2
2021/03/14 00:00:31;;;;;;;1.33;0.50;;;10.40;63.00;;;;;;5032686;28;20056;-68
2021/03/14 00:02:58;;;;;;;2.20;1.10;;;10.40;62.90;;;;;;5019004;28;20043;-68
2021/03/14 00:05:24;;;;;;;1.20;0.90;;;10.40;62.70;;;;;;5014143;28;20029;-68
2021/03/14 00:07:49;;;;;;;0.88;0.77;;;10.40;62.50;;;;;;5032404;28;20037;-68
2021/03/14 00:10:16;;;;;;;7.13;2.30;;;10.50;62.60;;;;;;5032591;28;20485;-68
2021/03/14 00:12:42;;;;;;;2.60;1.48;;;10.40;62.50;;;;;;5031016;28;20087;-68
2021/03/14 00:15:08;;;;;;;3.15;1.10;;;10.40;62.80;;;;;;5032029;28;20029;-68
2021/03/14 00:17:35;;;;;;;2.22;0.93;;;10.50;62.80;;;;;;5032115;28;20261;-68
2021/03/14 00:20:01;;;;;;;1.25;0.65;;;10.40;62.60;;;;;;5032260;28;20045;-68
2021/03/14 00:22:27;;;;;;;0.95;0.63;;;10.40;62.50;;;;;;5032087;28;20514;-68
2021/03/14 00:24:53;;;;;;;1.27;0.70;;;10.40;62.60;;;;;;5032121;28;20057;-68
2021/03/14 00:27:19;;;;;;;1.10;0.50;;;10.50;62.80;;;;;;5031652;28;20475;-68
2021/03/14 00:29:44;;;;;;;1.10;0.73;;;10.50;62.70;;;;;;5031273;28;20044;-68
2021/03/14 00:32:10;;;;;;;0.88;0.68;;;10.40;62.70;;;;;;5031039;28;20035;-68
2021/03/14 00:34:36;;;;;;;2.08;0.90;;;10.40;62.60;;;;;;5031998;28;20025;-69
2021/03/14 00:37:02;;;;;;;0.95;0.65;;;10.50;62.90;;;;;;5031618;28;20026;-68
2021/03/14 00:39:28;;;;;;;1.38;0.45;;;10.40;62.80;;;;;;5031888;28;20060;-68
2021/03/14 00:41:53;;;;;;;1.15;0.40;;;10.50;62.70;;;;;;5032019;28;20029;-69
2021/03/14 00:44:19;;;;;;;2.25;0.52;;;10.40;62.50;;;;;;5032226;28;20510;-68
2021/03/14 00:46:45;;;;;;;0.32;0.20;;;10.40;62.60;;;;;;5014059;28;20026;-69
2021/03/14 00:49:19;;;;;;;0.60;0.30;;;10.40;62.50;;;;;;5014571;28;20423;-68
2021/03/14 00:51:45;;;;;;;1.40;0.68;;;10.40;62.70;;;;;;5032116;28;20025;-68
2021/03/14 00:54:11;;;;;;;0.60;0.40;;;10.40;62.80;;;;;;5031809;28;20029;-68
2021/03/14 00:56:37;;;;;;;0.88;0.30;;;10.40;62.70;;;;;;5021115;28;20116;-68
2021/03/14 00:59:03;;;;;;;0.55;0.20;;;10.40;62.90;;;;;;5031781;28;20036;-68
2021/03/14 01:01:29;;;;;;;1.15;0.47;;;10.40;62.80;;;;;;5031934;28;20050;-67
2021/03/14 01:03:55;;;;;;;0.35;0.22;;;10.40;62.60;;;;;;5031808;28;20022;-68
2021/03/14 01:06:21;;;;;;;1.55;0.40;;;10.40;62.50;;;;;;5022699;28;20044;-67
2021/03/14 01:08:48;;;;;;;0.17;0.10;;;10.40;62.40;;;;;;5031766;28;20418;-68
2021/03/14 01:11:14;;;;;;;0.70;0.30;;;10.40;62.30;;;;;;5031710;28;20025;-68
2021/03/14 01:13:40;;;;;;;0.82;0.30;;;10.40;62.60;;;;;;5031494;28;20030;-68
2021/03/14 01:16:06;;;;;;;0.20;0.20;;;10.40;62.50;;;;;;5030884;28;20037;-69
2021/03/14 01:18:32;;;;;;;0.20;0.20;;;10.40;62.50;;;;;;5031660;28;20419;-68
2021/03/14 01:20:58;;;;;;;0.38;0.20;;;10.40;62.80;;;;;;5031569;28;20431;-68
2021/03/14 01:23:23;;;;;;;1.02;0.40;;;10.40;62.50;;;;;;5031535;28;20029;-68
2021/03/14 01:25:49;;;;;;;2.20;0.85;;;10.40;62.50;;;;;;5031245;28;20022;-68
2021/03/14 01:28:15;;;;;;;0.77;0.22;;;10.40;62.30;;;;;;5030343;28;20030;-68
2021/03/14 01:30:41;;;;;;;0.85;0.20;;;10.40;62.20;;;;;;5024479;28;20055;-68
2021/03/14 01:33:07;;;;;;;0.28;0.15;;;10.40;62.10;;;;;;5031328;28;20022;-68
2021/03/14 01:35:33;;;;;;;0.30;0.10;;;10.40;62.20;;;;;;5031149;28;20108;-68
2021/03/14 01:37:58;;;;;;;0.57;0.20;;;10.40;62.20;;;;;;5031257;28;20025;-68
2021/03/14 01:40:24;;;;;;;0.70;0.30;;;10.40;62.30;;;;;;5030465;28;20471;-67
2021/03/14 01:42:50;;;;;;;0.75;0.20;;;10.40;62.50;;;;;;5031868;28;20064;-68
2021/03/14 01:45:17;;;;;;;0.20;0.20;;;10.40;62.40;;;;;;5034201;28;20033;-68
2021/03/14 01:47:45;;;;;;;3.10;0.20;;;10.50;63.00;;;;;;5034287;28;20502;-68
2021/03/14 01:50:16;;;;;;;0.32;0.13;;;10.50;62.80;;;;;;5034664;28;20025;-67
2021/03/14 01:52:44;;;;;;;1.20;0.45;;;10.50;62.50;;;;;;5034771;28;20025;-68
2021/03/14 01:55:10;;;;;;;0.43;0.30;;;10.50;62.50;;;;;;5034086;28;20500;-68
2021/03/14 01:57:37;;;;;;;1.75;0.65;;;10.50;62.30;;;;;;5034703;28;20033;-68
2021/03/14 02:00:08;;;;;;;0.63;0.22;;;10.50;62.30;;;;;;5033170;28;20099;-68
2021/03/14 02:02:34;;;;;;;0.93;0.25;;;10.50;62.10;;;;;;5032468;28;20037;-68
2021/03/14 02:05:00;;;;;;;1.08;0.38;;;10.50;62.20;;;;;;5034207;28;20052;-68
2021/03/14 02:07:26;;;;;;;0.95;0.30;;;10.50;62.40;;;;;;5034230;28;20030;-68
2021/03/14 02:09:52;;;;;;;0.47;0.32;;;10.50;62.40;;;;;;5034048;28;20036;-68
2021/03/14 02:12:21;;;;;;;0.65;0.40;;;10.50;62.50;;;;;;5034442;28;20482;-68
2021/03/14 02:14:50;;;;;;;0.80;0.30;;;10.50;62.70;;;;;;5033966;28;20426;-68
2021/03/14 02:17:20;;;;;;;0.75;0.32;;;10.50;62.50;;;;;;5033656;28;20475;-68
2021/03/14 02:20:00;;;;;;;1.35;0.40;;;10.50;62.60;;;;;;5033282;28;20381;-68
2021/03/14 02:22:27;;;;;;;1.10;0.45;;;10.50;62.50;;;;;;5034090;28;20025;-67
2021/03/14 02:24:59;;;;;;;0.20;0.10;;;10.50;62.20;;;;;;5034212;28;20072;-68
2021/03/14 02:27:25;;;;;;;1.02;0.38;;;10.50;62.40;;;;;;5033727;28;20491;-68
2021/03/14 02:29:52;;;;;;;0.43;0.22;;;10.50;62.50;;;;;;5033635;28;20503;-68
2021/03/14 02:32:19;;;;;;;1.10;0.20;;;10.50;62.50;;;;;;5034067;28;20030;-68
2021/03/14 02:34:52;;;;;;;0.73;0.30;;;10.50;62.70;;;;;;5031907;28;20136;-68
2021/03/14 02:37:19;;;;;;;1.27;0.70;;;10.50;62.90;;;;;;5033722;28;20029;-68
2021/03/14 02:39:45;;;;;;;0.30;0.30;;;10.50;62.80;;;;;;5033501;28;20056;-69
2021/03/14 02:42:13;;;;;;;0.50;0.20;;;10.50;62.70;;;;;;5033765;28;20083;-67
2021/03/14 02:44:47;;;;;;;0.38;0.20;;;10.50;62.70;;;;;;5033683;28;20549;-68
2021/03/14 02:47:13;;;;;;;1.55;0.40;;;10.50;62.90;;;;;;5031350;28;20030;-68
2021/03/14 02:49:39;;;;;;;1.38;0.40;;;10.50;62.80;;;;;;5032424;28;20120;-68
2021/03/14 02:52:06;;;;;;;0.15;0.15;;;10.50;62.90;;;;;;5031447;28;20025;-68
2021/03/14 02:54:33;;;;;;;0.38;0.30;;;10.50;63.00;;;;;;5032636;28;20041;-68
2021/03/14 02:57:00;;;;;;;2.08;0.40;;;10.50;62.90;;;;;;5026975;28;20064;-68
2021/03/14 02:59:26;;;;;;;0.75;0.30;;;10.50;63.10;;;;;;5020555;28;20029;-69
2021/03/14 03:01:52;;;;;;;0.38;0.22;;;10.50;63.10;;;;;;5030918;28;20048;-67
2021/03/14 03:04:21;;;;;;;1.38;0.50;;;10.40;63.10;;;;;;5033096;28;20033;-67
2021/03/14 03:06:48;;;;;;;1.45;0.43;;;10.40;62.90;;;;;;5033366;28;20079;-67
2021/03/14 03:09:15;;;;;;;2.03;0.50;;;10.40;62.70;;;;;;5033328;28;20052;-68
2021/03/14 03:11:42;;;;;;;0.75;0.40;;;10.40;62.60;;;;;;5032742;28;20418;-68
2021/03/14 03:14:13;;;;;;;1.90;0.55;;;10.40;62.60;;;;;;5033195;28;20029;-68
2021/03/14 03:16:45;;;;;;;0.95;0.30;;;10.40;62.70;;;;;;5033153;28;20021;-68
2021/03/14 03:19:14;;;;;;;0.22;0.20;;;10.40;62.60;;;;;;5032758;28;20039;-67
2021/03/14 03:21:41;;;;;;;3.55;0.73;;;10.40;62.60;;;;;;5032745;28;20064;-67
2021/03/14 03:24:08;;;;;;;3.38;0.50;;;10.40;62.60;;;;;;5033086;28;20029;-68
2021/03/14 03:26:37;;;;;;;0.70;0.25;;;10.30;62.80;;;;;;5022353;28;20029;-68
2021/03/14 03:29:03;;;;;;;1.38;0.50;;;10.30;62.70;;;;;;5033005;28;20083;-67
2021/03/14 03:31:29;;;;;;;0.77;0.40;;;10.30;62.70;;;;;;5032592;28;20049;-67
2021/03/14 03:33:55;;;;;;;1.10;0.43;;;10.30;62.70;;;;;;5015062;28;20057;-67
2021/03/14 03:36:21;;;;;;;1.65;0.68;;;10.30;62.60;;;;;;5032333;28;20496;-67
2021/03/14 03:38:47;;;;;;;4.95;0.73;;;10.30;62.70;;;;;;5032810;28;20515;-68
2021/03/14 03:41:14;;;;;;;1.40;0.47;;;10.30;62.70;;;;;;5032363;28;20087;-68
2021/03/14 03:43:40;;;;;;;1.48;0.50;;;10.30;62.80;;;;;;5032485;28;20026;-67
2021/03/14 03:46:09;;;;;;;1.98;0.65;;;10.20;62.80;;;;;;5032333;28;20055;-67
2021/03/14 03:48:40;;;;;;;0.85;0.38;;;10.20;62.70;;;;;;5032427;28;20017;-67
2021/03/14 03:51:07;;;;;;;3.75;0.70;;;10.20;62.40;;;;;;5032665;28;20048;-67
2021/03/14 03:53:34;;;;;;;0.82;0.60;;;10.20;62.10;;;;;;5031151;28;20026;-67
2021/03/14 03:56:01;;;;;;;0.65;0.32;;;10.20;62.10;;;;;;5032184;28;20470;-67
2021/03/14 03:58:30;;;;;;;1.75;0.60;;;10.10;61.80;;;;;;5027338;28;20044;-66
2021/03/14 04:00:56;;;;;;;1.10;0.60;;;10.10;61.80;;;;;;5022114;28;20045;-67
2021/03/14 04:03:24;;;;;;;0.82;0.30;;;10.10;61.50;;;;;;5026987;28;20045;-68
2021/03/14 04:05:55;;;;;;;1.63;0.60;;;10.00;61.00;;;;;;5032108;28;20030;-67
2021/03/14 04:08:21;;;;;;;1.88;0.40;;;10.00;61.30;;;;;;5032270;28;20478;-67
2021/03/14 04:10:48;;;;;;;1.20;0.57;;;10.00;61.30;;;;;;5031701;28;20079;-67
2021/03/14 04:13:15;;;;;;;0.77;0.40;;;10.00;61.30;;;;;;5032068;28;20025;-67
2021/03/14 04:15:41;;;;;;;0.85;0.50;;;10.00;61.20;;;;;;5031597;28;20391;-67
2021/03/14 04:18:08;;;;;;;2.50;0.70;;;10.00;60.90;;;;;;5031641;28;20029;-68
2021/03/14 04:20:37;;;;;;;2.42;0.77;;;10.00;60.80;;;;;;5032133;28;20030;-68
2021/03/14 04:23:06;;;;;;;0.95;0.40;;;10.00;60.70;;;;;;5033002;28;20379;-66
2021/03/14 04:25:33;;;;;;;1.55;0.43;;;10.00;60.80;;;;;;5032783;28;20132;-67
2021/03/14 04:28:01;;;;;;;1.38;0.50;;;10.00;61.00;;;;;;5015215;28;20211;-66
2021/03/14 04:30:28;;;;;;;2.63;0.38;;;10.00;61.10;;;;;;5014951;28;20117;-67
2021/03/14 04:32:55;;;;;;;2.22;0.70;;;10.00;61.10;;;;;;5019952;28;20053;-67
2021/03/14 04:35:23;;;;;;;0.95;0.40;;;10.00;61.10;;;;;;5031290;28;20507;-67
2021/03/14 04:37:49;;;;;;;0.77;0.40;;;10.10;61.30;;;;;;5032851;28;20113;-67
2021/03/14 04:40:15;;;;;;;0.73;0.50;;;10.10;61.40;;;;;;5032891;28;20442;-67
2021/03/14 04:42:45;;;;;;;0.65;0.40;;;10.10;61.20;;;;;;5032618;28;20030;-66
2021/03/14 04:45:11;;;;;;;2.85;0.60;;;10.10;61.10;;;;;;5031032;28;20061;-66
2021/03/14 04:47:40;;;;;;;2.20;0.40;;;10.10;61.50;;;;;;5019078;28;20037;-65
2021/03/14 04:50:07;;;;;;;0.88;0.30;;;10.10;61.30;;;;;;5032639;28;20026;-66
2021/03/14 04:52:34;;;;;;;3.03;0.63;;;10.20;61.60;;;;;;5031367;28;20518;-66
2021/03/14 04:55:00;;;;;;;1.40;0.50;;;10.20;62.30;;;;;;5032185;28;20467;-67
2021/03/14 04:57:28;;;;;;;1.58;0.55;;;10.20;61.30;;;;;;5032698;28;20479;-66
2021/03/14 04:59:54;;;;;;;0.63;0.32;;;10.20;61.10;;;;;;5032523;28;20065;-67
2021/03/14 05:02:22;;;;;;;1.88;0.50;;;10.20;61.10;;;;;;5032441;28;20522;-67
2021/03/14 05:04:51;;;;;;;0.80;0.47;;;10.20;60.80;;;;;;5032703;28;20049;-66
2021/03/14 05:07:19;;;;;;;0.90;0.30;;;10.20;61.00;;;;;;5032092;28;20159;-67
2021/03/14 05:09:45;;;;;;;1.70;0.60;;;10.30;61.20;;;;;;5032331;28;20022;-66
2021/03/14 05:12:12;;;;;;;1.05;0.60;;;10.30;61.20;;;;;;5030823;28;20036;-66
2021/03/14 05:14:38;;;;;;;0.82;0.40;;;10.30;61.10;;;;;;5032603;28;20107;-67
2021/03/14 05:17:05;;;;;;;2.78;0.60;;;10.30;61.20;;;;;;5032374;28;20033;-66
2021/03/14 05:19:31;;;;;;;1.52;0.50;;;10.30;61.10;;;;;;5035225;28;20018;-67
2021/03/14 05:21:58;;;;;;;0.60;0.40;;;10.30;60.80;;;;;;5035862;28;20378;-66
2021/03/14 05:24:26;;;;;;;1.63;0.50;;;10.30;60.70;;;;;;5036241;28;20108;-66
2021/03/14 05:26:52;;;;;;;0.40;0.35;;;10.30;60.90;;;;;;5036274;28;20029;-66
2021/03/14 05:29:18;;;;;;;1.35;0.40;;;10.30;60.90;;;;;;5036163;28;20113;-67
2021/03/14 05:31:44;;;;;;;1.02;0.40;;;10.20;60.90;;;;;;5035769;28;20453;-67
2021/03/14 05:34:17;;;;;;;0.73;0.30;;;10.30;60.30;;;;;;5035653;28;20026;-67
2021/03/14 05:36:44;;;;;;;2.13;0.50;;;10.20;59.90;;;;;;5035692;28;20048;-66
2021/03/14 05:39:10;;;;;;;0.75;0.50;;;10.20;60.30;;;;;;5036052;28;20136;-66
2021/03/14 05:41:37;;;;;;;0.85;0.50;;;10.20;60.50;;;;;;5034110;28;20032;-66
2021/03/14 05:44:04;;;;;;;1.10;0.43;;;10.20;60.60;;;;;;5035921;28;20021;-66
2021/03/14 05:46:30;;;;;;;0.70;0.40;;;10.20;60.70;;;;;;5035688;28;20020;-67
2021/03/14 05:48:56;;;;;;;2.35;0.50;;;10.20;60.90;;;;;;5035546;28;20030;-66
2021/03/14 05:51:27;;;;;;;0.57;0.47;;;10.20;61.20;;;;;;5035605;28;20022;-67
2021/03/14 05:53:55;;;;;;;1.35;0.40;;;10.10;61.60;;;;;;5018078;28;20025;-66
2021/03/14 05:56:23;;;;;;;2.72;0.57;;;10.10;61.60;;;;;;5035686;28;20482;-66
2021/03/14 05:58:54;;;;;;;2.90;1.50;;;10.10;61.70;;;;;;5035580;28;20033;-67
2021/03/14 06:01:25;;;;;;;0.85;0.50;;;10.10;61.80;;;;;;5035200;28;20041;-66
2021/03/14 06:03:54;;;;;;;2.40;0.50;;;10.00;61.00;;;;;;5035299;28;20544;-67
2021/03/14 06:06:20;;;;;;;1.00;0.57;;;10.00;60.90;;;;;;5035384;28;20475;-66
2021/03/14 06:08:46;;;;;;;1.65;0.50;;;9.90;61.00;;;;;;5035110;28;20044;-66
2021/03/14 06:11:12;;;;;;;0.55;0.30;;;9.90;61.50;;;;;;5035199;28;20503;-67
2021/03/14 06:13:38;;;;;;;1.55;0.82;;;9.90;61.80;;;;;;5034870;28;20040;-66
2021/03/14 06:16:04;;;;;;;2.22;1.10;;;9.90;62.10;;;;;;5034058;28;20426;-66
2021/03/14 06:18:30;;;;;;;9.25;0.95;;;10.00;62.50;;;;;;5034940;28;20074;-66
2021/03/14 06:20:56;;;;;;;1.65;0.75;;;10.00;63.00;;;;;;5035183;28;20075;-66
2021/03/14 06:23:23;;;;;;;2.95;0.90;;;10.10;63.40;;;;;;5035181;28;20108;-66
2021/03/14 06:25:54;;;;;;;0.93;0.65;;;10.20;63.60;;;;;;5026091;28;20056;-67
2021/03/14 06:28:34;;;;;;;2.03;0.95;;;10.30;63.60;;;;;;5034934;28;20025;-66
2021/03/14 06:31:16;;;;;;;1.35;0.93;;;10.50;63.90;;;;;;5033049;28;20075;-66
2021/03/14 06:33:42;;;;;;;1.52;0.80;;;10.60;63.80;;;;;;5034719;28;20036;-66
2021/03/14 06:36:19;;;;;;;2.85;0.98;;;10.70;63.30;;;;;;5034657;28;20076;-67
2021/03/14 06:38:46;;;;;;;1.63;0.50;;;10.80;62.00;;;;;;5034833;28;20506;-66
2021/03/14 06:41:20;;;;;;;1.05;0.60;;;10.80;62.40;;;;;;5034293;28;20029;-66
2021/03/14 06:43:56;;;;;;;2.15;0.82;;;10.80;60.80;;;;;;5034731;28;20033;-66
2021/03/14 06:46:30;;;;;;;1.00;0.70;;;10.80;60.70;;;;;;5034432;28;20041;-67
2021/03/14 06:49:09;;;;;;;1.30;0.70;;;10.80;60.50;;;;;;5034464;28;20053;-66
2021/03/14 06:51:38;;;;;;;0.43;0.40;;;10.80;60.50;;;;;;5033254;28;20117;-66
2021/03/14 06:54:41;;;;;;;1.05;0.60;;;10.80;60.50;;;;;;5033299;28;20104;-66
2021/03/14 06:57:08;;;;;;;1.70;1.02;;;10.80;60.30;;;;;;4944121;29;20114;-66
2021/03/14 07:00:04;;;;;;;1.52;0.80;;;10.80;60.30;;;;;;4946923;29;20489;-66
2021/03/14 07:02:30;;;;;;;1.10;0.60;;;10.70;60.60;;;;;;4916954;29;20051;-66
2021/03/14 07:05:01;;;;;;;1.75;0.77;;;10.80;60.30;;;;;;4934854;29;20044;-66
2021/03/14 07:07:30;;;;;;;1.20;0.70;;;10.80;59.90;;;;;;4934993;29;20486;-67
2021/03/14 07:10:03;;;;;;;2.83;0.70;;;10.70;59.80;;;;;;4948501;29;20153;-66
2021/03/14 07:12:37;;;;;;;1.55;0.90;;;10.70;60.10;;;;;;4948575;29;20039;-66
2021/03/14 07:15:10;;;;;;;;;;;10.70;59.60;;;;;;4936014;29;20063;-66
2021/03/14 07:17:37;;;;;;;1.58;0.70;;;10.70;59.20;;;;;;4934688;29;19910;-66
2021/03/14 07:20:07;;;;;;;0.95;0.60;;;10.60;59.10;;;;;;4934536;29;20031;-66
2021/03/14 07:22:33;;;;;;;1.15;0.40;;;10.50;58.40;;;;;;4934341;29;20435;-66
2021/03/14 07:24:59;;;;;;;0.40;0.30;;;10.50;58.60;;;;;;4934268;29;20446;-66
2021/03/14 07:27:29;;;;;;;0.32;0.30;;;10.40;58.70;;;;;;4945688;29;20043;-67
2021/03/14 07:29:57;;;;;;;0.57;0.20;;;10.40;58.80;;;;;;4937262;28;20034;-66
2021/03/14 07:32:23;;;;;;;1.02;0.52;;;10.40;58.80;;;;;;5014060;28;20025;-67
2021/03/14 07:34:49;;;;;;;0.75;0.30;;;10.40;59.10;;;;;;5014701;28;20025;-65
2021/03/14 07:37:16;;;;;;;2.55;0.55;;;10.40;59.40;;;;;;5033432;28;20391;-66
2021/03/14 07:39:42;;;;;;;2.15;0.40;;;10.40;59.50;;;;;;5033446;28;20060;-67
2021/03/14 07:42:10;;;;;;;0.30;0.25;;;10.40;63.40;;;;;;5032634;28;20394;-71
2021/03/14 07:44:36;;;;;;;1.25;0.40;;;10.10;65.10;;;;;;5032396;28;20604;-71
2021/03/14 07:47:02;;;;;;;0.38;0.30;;;10.00;65.40;;;;;;5033684;28;20029;-72
2021/03/14 07:49:29;;;;;;;0.40;0.35;;;9.90;65.90;;;;;;5033611;28;20025;-74
2021/03/14 07:51:56;;;;;;;0.47;0.20;;;9.70;66.00;;;;;;5033156;28;20021;-71
2021/03/14 07:54:46;;;;;;;0.75;0.40;;;9.60;66.70;;;;;;5033127;28;20486;-72
2021/03/14 07:57:13;;;;;;;1.80;0.50;;;9.60;67.70;;;;;;5020886;28;20497;-74
2021/03/14 07:59:42;;;;;;;1.10;0.38;;;9.60;68.60;;;;;;5033144;28;20079;-72
2021/03/14 08:02:16;;;;;;;0.20;0.20;;;9.60;69.00;;;;;;5031793;28;20026;-74
2021/03/14 08:04:46;;;;;;;1.95;0.50;;;9.70;69.60;;;;;;5012689;28;20028;-73
2021/03/14 08:07:12;;;;;;;1.58;0.47;;;9.80;69.30;;;;;;5023524;28;20029;-72
2021/03/14 08:09:48;;;;;;;1.35;0.80;;;9.80;69.70;;;;;;5033166;28;20568;-72
2021/03/14 08:12:21;;;;;;;0.65;0.40;;;9.90;68.70;;;;;;5033335;28;20036;-73
2021/03/14 08:14:55;;;;;;;0.82;0.60;;;10.00;68.50;;;;;;5033407;28;20442;-72
2021/03/14 08:17:26;;;;;;;0.75;0.55;;;10.00;68.20;;;;;;5032590;28;20018;-72
2021/03/14 08:19:53;;;;;;;1.05;0.52;;;10.00;68.00;;;;;;5032882;28;20053;-74
2021/03/14 08:22:37;;;;;;;1.30;0.75;;;10.10;68.40;;;;;;5032951;28;20480;-73
2021/03/14 08:25:19;;;;;;;1.35;0.68;;;10.20;69.20;;;;;;5034167;28;20025;-72
2021/03/14 08:27:48;;;;;;;1.92;0.60;;;10.30;68.80;;;;;;5031875;28;20025;-71
2021/03/14 08:30:29;;;;;;;1.08;0.47;;;10.40;67.00;;;;;;5034936;28;20037;-72
2021/03/14 08:33:15;;;;;;;1.80;0.60;;;10.40;65.10;;;;;;5029995;28;20084;-73
2021/03/14 08:35:48;;;;;;;0.50;0.50;;;10.50;64.70;;;;;;5001901;28;20029;-71
2021/03/14 08:38:53;;;;;;;1.40;0.88;;;10.50;64.10;;;;;;5032901;28;20026;-71
2021/03/14 08:41:39;;;;;;;1.58;0.70;;;10.60;63.90;;;;;;5033107;28;20067;-71
2021/03/14 08:44:14;;;;;;;1.88;0.75;;;10.70;63.70;;;;;;5032202;28;20029;-70
2021/03/14 08:46:45;;;;;;;0.98;0.70;;;10.70;62.10;;;;;;5032900;28;20477;-70
2021/03/14 08:49:19;;;;;;;4.07;0.70;;;10.80;62.80;;;;;;5023311;28;20121;-71
2021/03/14 08:51:45;;;;;;;1.10;0.80;;;10.80;60.00;;;;;;5015290;28;20084;-72
2021/03/14 08:54:12;;;;;;;0.93;0.50;;;10.80;60.60;;;;;;5035539;28;20033;-70
2021/03/14 08:56:38;;;;;;;1.73;0.95;;;10.90;61.10;;;;;;5036901;28;20032;-71
2021/03/14 08:59:08;;;;;;;1.92;0.50;;;10.90;60.90;;;;;;5018960;28;20113;-69
2021/03/14 09:01:34;;;;;;;1.00;0.50;;;10.80;62.00;;;;;;5018834;28;20046;-70
2021/03/14 09:04:14;;;;;;;0.63;0.30;;;10.70;62.30;;;;;;5036723;28;20087;-70
2021/03/14 09:06:40;;;;;;;1.58;0.82;;;10.50;61.50;;;;;;5018832;28;20017;-70
2021/03/14 09:09:11;;;;;;;0.95;0.55;;;10.50;62.20;;;;;;5036532;28;20438;-69
2021/03/14 09:12:14;;;;;;;0.98;0.70;;;10.40;62.20;;;;;;5036466;28;20018;-69
2021/03/14 09:14:48;;;;;;;1.90;0.68;;;10.40;63.40;;;;;;5036439;28;20021;-69
2021/03/14 09:17:17;;;;;;;0.63;0.50;;;10.40;62.50;;;;;;5036412;28;20014;-69
2021/03/14 09:19:52;;;;;;;0.82;0.52;;;10.40;61.90;;;;;;5018548;28;20186;-69
2021/03/14 09:22:24;;;;;;;0.80;0.50;;;10.40;61.00;;;;;;5018523;28;20036;-69
2021/03/14 09:24:52;;;;;;;0.60;0.50;;;10.30;60.50;;;;;;5035257;28;20036;-68
2021/03/14 09:27:19;;;;;;;1.23;0.90;;;10.40;61.40;;;;;;5037116;28;20034;-69
2021/03/14 09:29:48;;;;;;;1.65;0.88;;;10.30;60.80;;;;;;5016471;28;20022;-69
2021/03/14 09:32:23;;;;;;;3.72;1.38;;;10.20;60.40;;;;;;5016375;28;20030;-68
2021/03/14 09:34:51;;;;;;;2.20;1.10;;;10.20;60.20;;;;;;5016314;28;20033;-68
2021/03/14 09:37:28;;;;;;;1.75;0.98;;;10.20;60.90;;;;;;5016280;28;20026;-68
2021/03/14 09:40:12;;;;;;;1.50;1.10;;;10.20;60.90;;;;;;5016317;28;20423;-68
2021/03/14 09:42:39;;;;;;;1.98;1.25;;;10.20;60.10;;;;;;5016136;28;20030;-69
2021/03/14 09:45:08;;;;;;;1.50;1.00;;;10.30;61.30;;;;;;5016092;28;20026;-68
2021/03/14 09:47:35;;;;;;;1.40;0.90;;;10.40;62.20;;;;;;5016030;28;20034;-68
2021/03/14 09:50:07;;;;;;;1.17;0.77;;;10.50;62.00;;;;;;4998418;28;20040;-68
2021/03/14 09:52:34;;;;;;;0.70;0.70;;;10.60;61.30;;;;;;5015867;28;20475;-68
2021/03/14 09:55:00;;;;;;;1.10;0.73;;;10.70;60.30;;;;;;5031455;28;20415;-68
2021/03/14 09:57:26;;;;;;;1.58;0.82;;;10.70;60.70;;;;;;5014683;28;20029;-67
2021/03/14 09:59:56;;;;;;;2.05;0.90;;;10.80;60.70;;;;;;5015604;28;20112;-68
2021/03/14 10:02:23;;;;;;;0.85;0.55;;;10.80;60.80;;;;;;5015728;28;20450;-68
2021/03/14 10:04:49;;;;;;;1.35;0.45;;;10.70;59.10;;;;;;5015414;28;20430;-68
2021/03/14 10:07:23;;;;;;;0.40;0.40;;;10.50;59.20;;;;;;5015619;28;20022;-67
2021/03/14 10:09:49;;;;;;;1.08;0.73;;;10.40;59.80;;;;;;4997982;28;20034;-68
2021/03/14 10:12:15;;;;;;;1.38;0.70;;;10.40;60.60;;;;;;5015468;28;20022;-67
2021/03/14 10:14:41;;;;;;;0.40;0.40;;;10.40;61.20;;;;;;5015388;28;20104;-67
2021/03/14 10:17:07;;;;;;;1.75;0.63;;;10.50;61.90;;;;;;5015406;28;20533;-67
2021/03/14 10:19:33;;;;;;;2.78;0.70;;;10.60;62.60;;;;;;5015371;28;20022;-67
2021/03/14 10:22:02;;;;;;;3.20;0.75;;;10.70;62.10;;;;;;5015345;28;20030;-67
2021/03/14 10:24:28;;;;;;;0.93;0.52;;;10.80;61.70;;;;;;5026507;28;20430;-67
2021/03/14 10:27:02;;;;;;;2.53;0.90;;;10.90;61.40;;;;;;5034998;28;20033;-67
2021/03/14 10:29:33;;;;;;;;;;;11.00;61.10;;;;;;5034119;28;20406;-67
2021/03/14 10:32:00;;;;;;;5.57;0.90;;;11.20;61.00;;;;;;5034780;28;19920;-67
2021/03/14 10:34:26;;;;;;;4.22;0.90;;;11.20;59.70;;;;;;5033565;28;20025;-67
2021/03/14 10:36:55;;;;;;;1.77;1.08;;;11.30;59.70;;;;;;5034912;28;20029;-66
2021/03/14 10:39:30;;;;;;;3.28;1.20;;;11.40;59.60;;;;;;5034706;28;20550;-67
2021/03/14 10:41:57;;;;;;;3.20;1.40;;;11.50;58.80;;;;;;5034787;28;20026;-66
2021/03/14 10:44:24;;;;;;;3.92;1.27;;;11.60;58.60;;;;;;5034708;28;20053;-67
2021/03/14 10:46:52;;;;;;;3.75;1.35;;;11.70;58.80;;;;;;5034666;28;20022;-67
2021/03/14 10:49:30;;;;;;;3.75;1.40;;;11.80;59.50;;;;;;5016846;28;20029;-67
2021/03/14 10:51:58;;;;;;;3.03;1.17;;;11.90;57.30;;;;;;5016780;28;20033;-66
2021/03/14 10:54:35;;;;;;;5.60;1.88;;;12.00;57.20;;;;;;5034461;28;20024;-68
2021/03/14 10:57:02;;;;;;;3.28;0.90;;;12.00;56.30;;;;;;5034467;28;20440;-67
2021/03/14 10:59:33;;;;;;;2.13;1.10;;;12.10;56.60;;;;;;5032954;28;20033;-67
2021/03/14 11:02:23;;;;;;;4.32;1.05;;;12.10;56.20;;;;;;5034296;28;20029;-66
2021/03/14 11:04:59;;;;;;;2.50;0.90;;;12.10;56.00;;;;;;5034271;28;20025;-67
2021/03/14 11:07:35;;;;;;;5.43;1.38;;;12.10;55.40;;;;;;5034212;28;20045;-66
2021/03/14 11:10:12;;;;;;;3.15;1.10;;;12.10;55.50;;;;;;5034118;28;20029;-66
2021/03/14 11:12:42;;;;;;;1.77;1.02;;;12.00;55.70;;;;;;5034027;28;20022;-66
2021/03/14 11:15:21;;;;;;;2.28;0.95;;;12.00;56.30;;;;;;5033890;28;20067;-66
2021/03/14 11:17:47;;;;;;;4.15;1.13;;;11.90;55.80;;;;;;5034027;28;20017;-67
2021/03/14 11:20:13;;;;;;;4.25;1.40;;;11.80;54.30;;;;;;5034037;28;20024;-66
2021/03/14 11:22:39;;;;;;;3.03;1.23;;;11.80;54.60;;;;;;5033803;28;20052;-66
2021/03/14 11:25:06;;;;;;;1.88;0.88;;;11.80;56.40;;;;;;5033951;28;20029;-66
2021/03/14 11:27:32;;;;;;;6.32;1.10;;;11.90;56.60;;;;;;5033862;28;20029;-66
2021/03/14 11:29:58;;;;;;;1.65;0.90;;;11.90;56.10;;;;;;5032515;28;20470;-66
2021/03/14 11:32:25;;;;;;;2.45;1.10;;;12.10;57.10;;;;;;5033511;28;20057;-67
2021/03/14 11:34:51;;;;;;;3.00;1.10;;;12.10;55.90;;;;;;5033654;28;20022;-67
2021/03/14 11:37:20;;;;;;;4.10;1.17;;;12.20;55.50;;;;;;5033683;28;20034;-67
2021/03/14 11:39:45;;;;;;;2.35;1.20;;;12.20;54.50;;;;;;5032271;28;20026;-67
2021/03/14 11:42:12;;;;;;;3.03;1.40;;;12.20;54.50;;;;;;5033695;28;20071;-66
2021/03/14 11:44:38;;;;;;;8.00;1.40;;;12.10;54.30;;;;;;5032265;28;20418;-67
2021/03/14 11:47:04;;;;;;;3.17;1.15;;;12.00;53.30;;;;;;5033565;28;20613;-67
2021/03/14 11:49:29;;;;;;;3.95;1.10;;;12.00;53.70;;;;;;5033560;28;20056;-67
2021/03/14 11:51:55;;;;;;;3.22;1.33;;;11.90;54.80;;;;;;5033389;28;20144;-66
2021/03/14 11:54:21;;;;;;;2.85;1.00;;;11.80;54.30;;;;;;5033384;28;20097;-67
2021/03/14 11:56:48;;;;;;;3.95;1.40;;;11.80;54.70;;;;;;5033379;28;20026;-67
2021/03/14 11:59:15;;;;;;;3.78;1.02;;;11.90;55.40;;;;;;5033336;28;20467;-67
2021/03/14 12:01:40;;;;;;;1.65;0.90;;;12.00;54.40;;;;;;5033294;28;20128;-68
2021/03/14 12:04:07;;;;;;;4.32;1.83;;;12.10;55.30;;;;;;5034373;28;20523;-67
2021/03/14 12:06:33;;;;;;;2.97;1.00;;;12.30;55.20;;;;;;5034247;28;20048;-67
2021/03/14 12:08:59;;;;;;;1.95;0.90;;;12.50;56.40;;;;;;5033527;28;20021;-66
2021/03/14 12:11:25;;;;;;;1.67;0.93;;;12.60;56.50;;;;;;5033422;28;20014;-66
2021/03/14 12:13:51;;;;;;;5.28;1.30;;;12.70;54.70;;;;;;5015538;28;20029;-66
2021/03/14 12:16:17;;;;;;;3.33;1.08;;;12.70;52.00;;;;;;5033381;28;20026;-66
2021/03/14 12:18:43;;;;;;;2.08;0.93;;;12.60;52.50;;;;;;5015508;28;20390;-67
2021/03/14 12:21:10;;;;;;;7.35;1.33;;;12.60;52.90;;;;;;5033268;28;20029;-66
2021/03/14 12:23:36;;;;;;;2.58;1.00;;;12.60;52.50;;;;;;5033016;28;20109;-69
2021/03/14 12:26:05;;;;;;;3.95;1.17;;;12.60;54.00;;;;;;5032988;28;20535;-67
2021/03/14 12:28:32;;;;;;;2.72;0.90;;;12.60;52.80;;;;;;5032997;28;20025;-67
2021/03/14 12:30:58;;;;;;;2.97;1.20;;;12.60;52.40;;;;;;5032963;28;20025;-67
2021/03/14 12:33:24;;;;;;;3.88;0.93;;;12.50;51.30;;;;;;5032840;28;20029;-67
2021/03/14 12:35:50;;;;;;;3.63;1.20;;;12.50;51.90;;;;;;5032719;28;20410;-67
2021/03/14 12:38:17;;;;;;;3.40;1.15;;;12.40;52.50;;;;;;5032763;28;20022;-67
2021/03/14 12:40:46;;;;;;;14.20;3.15;;;12.40;54.60;;;;;;5032755;28;20431;-68
2021/03/14 12:43:20;;;;;;;1.67;0.80;;;12.30;54.90;;;;;;5032861;28;20028;-74
2021/03/14 12:45:49;;;;;;;1.75;0.82;;;11.90;55.30;;;;;;5032887;28;20029;-75
2021/03/14 12:48:16;;;;;;;1.88;1.15;;;11.60;55.90;;;;;;5032919;28;20026;-75
2021/03/14 12:50:42;;;;;;;4.47;1.08;;;11.10;57.00;;;;;;5015312;28;20036;-75
2021/03/14 12:53:07;;;;;;;1.45;0.80;;;10.70;58.10;;;;;;5031716;28;20036;-75
2021/03/14 12:55:33;;;;;;;1.95;1.00;;;10.40;59.40;;;;;;5031379;28;20026;-78